CDT,Max TemperatureF,Mean TemperatureF,Min TemperatureF,Max Dew PointF,MeanDew PointF,Min DewpointF,Max Humidity, Mean Humidity, Min Humidity, Max Sea Level PressureIn, Mean Sea Level PressureIn, Min Sea Level PressureIn, Max VisibilityMiles, Mean VisibilityMiles, Min VisibilityMiles, Max Wind SpeedMPH, Mean Wind SpeedMPH, Max Gust SpeedMPH,PrecipitationIn, CloudCover, Events, WindDirDegrees
2013-10-1,95,82,69,41,28,19,25,14,7,29.91,29.86,29.76,10,10,10,9,6,16,0.00,0,,256
2013-10-2,96,74,53,59,42,20,96,45,7,29.84,29.76,29.69,10,10,10,10,6,17,0.00,0,,169
2013-10-3,96,79,63,63,56,43,93,53,17,29.78,29.71,29.62,10,10,10,13,7,,0.00,0,,153
2013-10-4,95,80,66,62,47,32,79,40,11,29.79,29.72,29.66,10,10,10,18,9,29,0.00,0,,210
2013-10-5,73,64,55,62,34,26,84,34,17,30.12,29.99,29.77,10,10,10,25,11,37,0.00,1,,32
2013-10-6,78,60,43,33,28,20,60,33,12,30.19,30.13,30.08,10,10,10,7,4,,0.00,0,,34
2013-10-7,82,62,42,30,24,19,51,27,10,30.17,30.09,30.00,10,10,10,9,5,,0.00,0,,57
2013-10-8,88,66,45,35,28,20,53,27,9,29.99,29.89,29.78,10,10,10,18,7,24,0.00,0,,136
2013-10-9,90,75,60,50,40,34,49,32,15,29.86,29.80,29.74,10,10,10,18,11,25,0.00,0,,143
2013-10-10,93,78,64,57,49,30,63,43,12,29.81,29.72,29.58,10,10,10,22,13,30,0.00,0,,151
2013-10-11,87,70,55,57,41,32,84,42,14,29.88,29.80,29.71,10,10,10,14,7,24,0.00,0,,292
2013-10-12,84,68,53,53,40,28,55,37,17,30.00,29.93,29.86,10,10,10,12,6,,0.00,0,,54
2013-10-13,75,70,66,64,53,42,88,59,35,30.13,30.02,29.94,10,10,10,18,12,25,0.00,6,,74
2013-10-14,86,75,66,64,57,44,90,64,24,30.10,29.91,29.78,10,10,10,16,11,24,0.00,3,,170
2013-10-15,73,62,52,64,52,44,81,75,65,30.09,29.95,29.82,10,10,10,16,7,,0.11,7,Rain,72
2013-10-16,61,56,51,46,44,41,82,68,55,30.14,30.08,30.01,10,10,10,10,6,,0.00,6,,101
2013-10-17,73,60,46,56,50,43,93,75,49,30.13,30.00,29.83,10,10,10,15,5,,0.00,4,,124
2013-10-18,82,65,46,57,45,22,93,63,12,30.20,29.90,29.77,10,10,10,28,9,39,0.00,4,,88
2013-10-19,66,50,35,38,33,28,82,52,27,30.24,30.12,29.98,10,10,10,13,6,16,0.00,0,,102
2013-10-20,84,60,37,53,32,15,81,45,8,29.96,29.85,29.72,10,10,10,17,6,24,0.00,0,,227
2013-10-21,73,60,48,52,41,36,96,59,28,30.12,29.97,29.79,10,10,10,21,8,28,0.00,1,,33
2013-10-22,73,56,39,42,35,29,77,47,21,30.21,30.13,30.07,10,10,10,9,4,,0.00,0,,122
2013-10-23,80,58,37,37,30,26,67,38,14,30.14,30.06,29.98,10,10,10,13,6,21,0.00,0,,134
2013-10-24,82,62,43,42,37,30,71,42,16,30.12,30.05,29.99,10,10,10,14,8,18,0.00,0,,103
2013-10-25,73,64,55,51,47,42,72,58,40,30.25,30.11,30.05,10,10,10,22,11,26,0.00,1,,106
2013-10-26,81,63,46,50,45,36,90,57,21,30.12,30.07,30.01,10,10,10,13,7,,0.00,0,,3
2013-10-27,75,59,43,46,38,35,74,47,23,30.15,30.03,29.88,10,10,10,12,7,,0.00,0,,47
2013-10-28,84,72,59,62,54,38,93,63,19,29.89,29.83,29.75,10,10,10,15,11,20,0.00,0,,146
2013-10-29,84,74,63,65,57,32,97,68,16,30.03,29.85,29.79,10,10,10,16,9,21,0.00,0,,145
2013-10-30,77,70,62,64,57,45,93,69,33,29.86,29.78,29.69,10,10,10,18,9,31,0.03,2,Rain,173
2013-10-31,73,62,50,55,30,16,81,38,12,30.04,29.86,29.76,10,10,10,15,10,23,0.00,0,,271